Time;durP1;ratioP1;P1;durP2;ratioP2;P2;SDS_P1;SDS_P2;PMS_P1;PMS_P2;Temp;Humidity;BMP_temperature;BMP_pressure;BME280_temperature;BME280_humidity;BME280_pressure;Samples;Min_cycle;Max_cycle;Signal;HPM_P1;HPM_P2
2022/11/01 00:02:01;;;;;;;43.22;20.48;;;;;9.50;96346.00;;;;10185267;23;20197;-80
2022/11/01 00:06:06;;;;;;;48.00;20.73;;;;;9.40;96347.00;;;;10184084;23;20198;-80
2022/11/01 00:10:40;;;;;;;44.38;20.23;;;;;9.30;96353.00;;;;10185607;23;20194;-80
2022/11/01 00:14:43;;;;;;;54.95;21.17;;;;;9.20;96362.00;;;;10184936;23;20473;-80
2022/11/01 00:18:46;;;;;;;48.27;21.23;;;;;9.10;96356.00;;;;10185691;23;20205;-80
2022/11/01 00:22:50;;;;;;;60.67;22.60;;;;;9.00;96361.00;;;;10184915;23;20206;-80
2022/11/01 00:27:24;;;;;;;57.53;22.73;;;;;9.00;96350.00;;;;10185297;23;20198;-80
2022/11/01 00:31:28;;;;;;;648.50;50.87;;;;;9.00;96343.00;;;;10177768;23;20205;-81
2022/11/01 00:35:32;;;;;;;358.73;38.67;;;;;8.90;96348.00;;;;10186698;23;20601;-81
2022/11/01 00:40:11;;;;;;;125.55;28.65;;;;;8.90;96344.00;;;;10187911;23;20509;-81
2022/11/01 00:44:14;;;;;;;96.10;26.95;;;;;9.00;96346.00;;;;10168063;23;20497;-81
2022/11/01 00:48:51;;;;;;;94.20;28.30;;;;;9.10;96347.00;;;;10188315;23;20201;-82
2022/11/01 00:52:54;;;;;;;198.73;29.38;;;;;9.10;96338.00;;;;10187867;23;20492;-80
2022/11/01 00:56:58;;;;;;;544.77;42.10;;;;;9.10;96343.00;;;;10187064;23;20272;-80
2022/11/01 01:01:33;;;;;;;625.60;43.67;;;;;9.00;96334.00;;;;10187784;23;20198;-81
2022/11/01 01:05:36;;;;;;;883.80;64.93;;;;;9.00;96342.00;;;;10186862;23;20190;-80
2022/11/01 01:09:39;;;;;;;780.35;59.63;;;;;9.00;96340.00;;;;10187101;23;20194;-79
2022/11/01 01:14:18;;;;;;;198.73;33.70;;;;;9.10;96342.00;;;;10188005;23;20198;-80
2022/11/01 01:18:21;;;;;;;412.95;38.45;;;;;9.20;96335.00;;;;10187146;23;20202;-81
2022/11/01 01:22:24;;;;;;;180.67;30.87;;;;;9.20;96326.00;;;;10187643;23;20450;-77
2022/11/01 01:26:27;;;;;;;388.70;37.03;;;;;9.20;96324.00;;;;10187137;23;20473;-79
2022/11/01 01:30:31;;;;;;;256.03;33.87;;;;;9.20;96327.00;;;;10186662;23;20534;-80
2022/11/01 01:35:08;;;;;;;329.10;38.05;;;;;9.40;96318.00;;;;10188123;23;20212;-82
2022/11/01 01:39:11;;;;;;;205.07;35.28;;;;;9.70;96319.00;;;;10186138;23;20198;-80
2022/11/01 01:43:14;;;;;;;182.27;34.37;;;;;9.80;96310.00;;;;10186658;23;20213;-81
2022/11/01 01:47:22;;;;;;;1227.97;83.00;;;;;9.90;96299.00;;;;10187645;23;20613;-81
2022/11/01 01:51:28;;;;;;;736.58;68.40;;;;;10.20;96302.00;;;;10186691;23;20205;-80
2022/11/01 01:55:37;;;;;;;661.60;62.03;;;;;10.70;96299.00;;;;10187463;23;20260;-79
2022/11/01 01:59:40;;;;;;;1196.70;87.38;;;;;11.00;96301.00;;;;10186305;23;20657;-81
2022/11/01 02:04:17;;;;;;;920.67;66.45;;;;;11.00;96290.00;;;;10186486;23;20207;-81
2022/11/01 02:08:26;;;;;;;774.70;63.38;;;;;11.20;96312.00;;;;10182982;23;20196;-81
2022/11/01 02:12:54;;;;;;;425.38;40.03;;;;;11.20;96311.00;;;;10186982;23;20674;-81
2022/11/01 02:17:04;;;;;;;635.20;48.78;;;;;11.10;96317.00;;;;10186110;23;20209;-81
2022/11/01 02:21:36;;;;;;;193.63;30.48;;;;;10.80;96320.00;;;;10187833;23;20205;-82
2022/11/01 02:26:01;;;;;;;235.57;33.85;;;;;10.70;96333.00;;;;10185445;23;20201;-81
2022/11/01 02:30:17;;;;;;;381.52;37.85;;;;;10.60;96350.00;;;;10186125;23;20198;-82
2022/11/01 02:34:28;;;;;;;306.65;32.65;;;;;10.60;96347.00;;;;10185977;23;20501;-81
2022/11/01 02:38:36;;;;;;;438.02;42.35;;;;;10.50;96344.00;;;;10185525;23;20198;-81
2022/11/01 02:42:44;;;;;;;377.27;38.92;;;;;10.50;96351.00;;;;10186002;23;20209;-82
2022/11/01 02:47:00;;;;;;;603.75;48.58;;;;;10.40;96356.00;;;;10185870;23;20200;-82
2022/11/01 02:51:05;;;;;;;606.35;50.40;;;;;10.40;96356.00;;;;10186391;23;20217;-83
2022/11/01 02:55:28;;;;;;;423.85;42.50;;;;;10.40;96343.00;;;;10186460;23;20194;-83
2022/11/01 02:59:46;;;;;;;490.80;45.40;;;;;10.40;96348.00;;;;10185009;23;20194;-83
2022/11/01 03:03:53;;;;;;;572.00;48.80;;;;;10.50;96351.00;;;;10185782;23;20520;-85
2022/11/01 03:08:30;;;;;;;1235.28;78.72;;;;;10.50;96352.00;;;;10185818;23;20625;-83
2022/11/01 03:12:36;;;;;;;958.22;65.70;;;;;10.60;96358.00;;;;10185925;23;20484;-83
2022/11/01 03:16:47;;;;;;;440.95;41.35;;;;;10.80;96364.00;;;;10184675;23;20201;-84
2022/11/01 03:20:58;;;;;;;800.47;59.05;;;;;10.90;96350.00;;;;10186176;23;20648;-84
2022/11/01 03:25:38;;;;;;;1169.15;79.53;;;;;11.00;96358.00;;;;10184488;23;20202;-83
2022/11/01 03:29:36;;;;;;;544.08;51.05;;;;;11.10;96351.00;;;;10185314;23;20190;-83
2022/11/01 03:33:59;;;;;;;785.72;58.88;;;;;11.10;96348.00;;;;10186423;23;20203;-83
2022/11/01 03:38:18;;;;;;;348.63;38.65;;;;;11.20;96347.00;;;;10185486;23;20209;-83
2022/11/01 03:42:25;;;;;;;826.35;60.78;;;;;11.30;96358.00;;;;10185402;23;20205;-86
2022/11/01 03:46:28;;;;;;;236.50;33.72;;;;;11.30;96362.00;;;;10185092;23;20195;-87
2022/11/01 03:51:04;;;;;;;487.65;45.72;;;;;11.40;96371.00;;;;10185182;23;20199;-87
2022/11/01 03:55:17;;;;;;;518.22;47.05;;;;;11.40;96377.00;;;;10184726;23;20197;-85
2022/11/01 03:59:23;;;;;;;363.80;38.95;;;;;11.50;96368.00;;;;10185095;23;20490;-87
2022/11/01 04:03:26;;;;;;;366.55;39.83;;;;;11.50;96382.00;;;;10184230;23;20208;-87
2022/11/01 04:07:29;;;;;;;453.88;43.72;;;;;11.40;96388.00;;;;10185432;23;20630;-88
2022/11/01 04:11:32;;;;;;;532.70;46.63;;;;;11.30;96395.00;;;;10183786;23;20201;-86
2022/11/01 04:24:32;;;;;;;528.72;45.42;;;;;11.30;96401.00;;;;10184835;23;20280;-87
2022/11/01 04:28:35;;;;;;;651.10;59.08;;;;;11.30;96402.00;;;;10178336;23;20190;-89
2022/11/01 04:32:42;;;;;;;502.63;40.03;;;;;11.20;96398.00;;;;10185224;23;20200;-89
2022/11/01 04:36:46;;;;;;;482.38;42.75;;;;;11.20;96414.00;;;;10184279;23;20197;-88
2022/11/01 04:40:49;;;;;;;293.88;34.88;;;;;11.20;96414.00;;;;10184332;23;20226;-86
2022/11/01 04:44:52;;;;;;;273.67;34.33;;;;;11.20;96412.00;;;;10183797;23;20219;-87
2022/11/01 04:48:56;;;;;;;296.77;32.85;;;;;11.20;96411.00;;;;10183742;23;20620;-88
2022/11/01 04:53:00;;;;;;;603.35;43.35;;;;;11.20;96414.00;;;;10184562;23;20204;-89
2022/11/01 04:57:37;;;;;;;597.90;42.78;;;;;11.10;96418.00;;;;10182106;23;20199;-86
2022/11/01 05:02:11;;;;;;;312.50;32.35;;;;;11.10;96411.00;;;;10184620;23;20197;-85
2022/11/01 05:06:16;;;;;;;540.63;38.42;;;;;11.10;96410.00;;;;10187735;23;20201;-85
2022/11/01 05:10:19;;;;;;;206.45;23.60;;;;;11.10;96413.00;;;;10186073;23;20568;-81
2022/11/01 05:14:22;;;;;;;132.07;20.02;;;;;11.00;96415.00;;;;10181586;23;20501;-84
2022/11/01 05:18:59;;;;;;;190.68;20.83;;;;;11.00;96418.00;;;;10188368;23;20642;-84
2022/11/01 05:23:37;;;;;;;267.08;24.77;;;;;10.90;96428.00;;;;10188626;23;20209;-84
2022/11/01 05:27:40;;;;;;;214.57;23.92;;;;;10.90;96423.00;;;;10189465;23;20481;-85
2022/11/01 05:32:14;;;;;;;187.77;22.48;;;;;10.90;96434.00;;;;10191012;23;20540;-87
2022/11/01 05:36:51;;;;;;;368.75;28.63;;;;;10.80;96446.00;;;;10187476;23;20289;-86
2022/11/01 05:40:57;;;;;;;255.13;24.85;;;;;10.80;96437.00;;;;10190321;23;20613;-83
2022/11/01 05:45:32;;;;;;;275.05;26.55;;;;;10.90;96450.00;;;;10189214;23;20204;-87
2022/11/01 05:49:35;;;;;;;330.20;27.08;;;;;10.90;96458.00;;;;10187391;23;20293;-85
2022/11/01 05:53:38;;;;;;;379.77;32.35;;;;;10.90;96459.00;;;;10189281;23;20198;-86
2022/11/01 05:57:43;;;;;;;222.68;24.52;;;;;10.90;96471.00;;;;10189366;23;20201;-86
2022/11/01 06:02:17;;;;;;;245.73;21.05;;;;;10.80;96472.00;;;;10187949;23;20198;-84
2022/11/01 06:06:20;;;;;;;408.73;27.50;;;;;10.80;96484.00;;;;10188087;23;20194;-85
2022/11/01 06:10:23;;;;;;;368.10;25.25;;;;;10.80;96494.00;;;;10186214;23;20263;-83
2022/11/01 06:15:01;;;;;;;266.95;23.90;;;;;10.80;96504.00;;;;10187717;23;20190;-83
2022/11/01 06:19:04;;;;;;;362.27;23.92;;;;;10.80;96513.00;;;;10180446;23;20233;-85
2022/11/01 06:23:41;;;;;;;254.80;21.45;;;;;10.80;96522.00;;;;10187498;23;20333;-83
2022/11/01 06:28:01;;;;;;;314.65;25.92;;;;;10.90;96528.00;;;;10187851;23;20272;-78
2022/11/01 06:32:15;;;;;;;234.65;19.27;;;;;10.90;96519.00;;;;10174256;23;20224;-82
2022/11/01 06:36:49;;;;;;;214.10;17.38;;;;;10.80;96530.00;;;;10185920;23;20203;-82
2022/11/01 06:40:52;;;;;;;34.40;9.80;;;;;10.70;96535.00;;;;10186462;23;20199;-77
2022/11/01 06:45:29;;;;;;;46.00;10.68;;;;;10.60;96559.00;;;;10186067;23;20210;-82
2022/11/01 06:49:34;;;;;;;55.63;12.27;;;;;10.70;96567.00;;;;10185159;23;20201;-85
2022/11/01 06:54:09;;;;;;;77.43;13.23;;;;;10.70;96575.00;;;;10187468;23;20207;-84
2022/11/01 06:58:12;;;;;;;82.35;14.18;;;;;10.80;96567.00;;;;10188545;23;20585;-84
2022/11/01 07:02:49;;;;;;;43.72;12.57;;;;;11.00;96574.00;;;;10187001;23;20204;-85
2022/11/01 07:07:25;;;;;;;48.60;15.00;;;;;11.10;96581.00;;;;10164109;23;20204;-85
2022/11/01 07:12:04;;;;;;;32.28;11.43;;;;;11.30;96589.00;;;;10184576;23;20268;-80
2022/11/01 07:16:38;;;;;;;57.17;12.95;;;;;11.40;96592.00;;;;10183672;23;20213;-83
2022/11/01 07:21:12;;;;;;;49.13;13.23;;;;;11.60;96597.00;;;;10185145;23;20225;-82
2022/11/01 07:25:51;;;;;;;53.90;13.18;;;;;11.90;96593.00;;;;10184865;23;20201;-85
2022/11/01 07:30:27;;;;;;;85.93;15.05;;;;;12.20;96597.00;;;;10182870;23;20216;-82
2022/11/01 07:35:01;;;;;;;28.38;9.57;;;;;12.50;96605.00;;;;10183401;23;20197;-85
2022/11/01 07:39:38;;;;;;;30.08;11.32;;;;;12.50;96615.00;;;;10185284;23;20199;-87
2022/11/01 07:44:14;;;;;;;39.67;11.18;;;;;12.40;96615.00;;;;10183142;23;20263;-88
2022/11/01 07:48:19;;;;;;;28.88;10.98;;;;;12.50;96621.00;;;;10183653;23;20193;-87
2022/11/01 07:52:59;;;;;;;39.13;11.88;;;;;12.40;96624.00;;;;10184505;23;20415;-88
2022/11/01 07:57:29;;;;;;;31.88;12.20;;;;;12.40;96629.00;;;;10183607;23;20225;-91
2022/11/01 08:07:04;;;;;;;39.40;14.48;;;;;12.60;96633.00;;;;10184209;23;20203;-80
2022/11/01 08:11:42;;;;;;;41.97;14.05;;;;;12.80;96624.00;;;;10182106;23;20204;-87
2022/11/01 08:15:46;;;;;;;34.08;13.35;;;;;13.00;96632.00;;;;10183923;23;20212;-78
2022/11/01 08:19:49;;;;;;;38.42;14.10;;;;;13.20;96634.00;;;;10185064;23;20197;-77
2022/11/01 08:24:26;;;;;;;38.15;14.38;;;;;13.20;96625.00;;;;10183788;23;20205;-77
2022/11/01 08:29:04;;;;;;;44.25;15.45;;;;;13.30;96634.00;;;;10181194;23;20197;-76
2022/11/01 08:33:38;;;;;;;40.83;15.73;;;;;13.50;96625.00;;;;10183321;23;20628;-76
2022/11/01 08:38:16;;;;;;;39.55;15.55;;;;;13.50;96638.00;;;;10183603;23;20486;-77
2022/11/01 08:42:53;;;;;;;43.60;16.15;;;;;13.50;96651.00;;;;10179914;23;20269;-76
2022/11/01 08:47:31;;;;;;;40.67;15.02;;;;;13.70;96649.00;;;;10184400;23;20217;-75
2022/11/01 08:52:09;;;;;;;39.30;14.32;;;;;13.80;96654.00;;;;10183360;23;20216;-75
2022/11/01 08:56:46;;;;;;;40.10;14.88;;;;;13.80;96651.00;;;;10184335;23;20209;-76
2022/11/01 09:06:22;;;;;;;36.88;14.63;;;;;14.20;96658.00;;;;10188042;23;20210;-76
2022/11/01 09:10:57;;;;;;;24.98;12.00;;;;;14.40;96660.00;;;;10185499;23;20269;-74
2022/11/01 09:15:31;;;;;;;31.05;13.43;;;;;14.70;96663.00;;;;10185241;23;20298;-74
2022/11/01 09:20:09;;;;;;;26.60;12.45;;;;;15.00;96658.00;;;;10185423;23;20244;-74
2022/11/01 09:24:45;;;;;;;28.90;13.55;;;;;15.30;96659.00;;;;10186513;23;20516;-76
2022/11/01 09:29:20;;;;;;;24.75;12.30;;;;;15.60;96658.00;;;;10186105;23;20198;-77
2022/11/01 09:33:57;;;;;;;26.15;12.65;;;;;15.80;96668.00;;;;10186368;23;20205;-76
2022/11/01 09:38:01;;;;;;;31.05;15.60;;;;;16.00;96668.00;;;;10186777;23;20248;-78
2022/11/01 09:42:38;;;;;;;19.98;11.30;;;;;16.00;96655.00;;;;10184923;23;20212;-79
2022/11/01 09:46:45;;;;;;;24.98;13.07;;;;;16.00;96662.00;;;;10185831;23;20202;-79
2022/11/01 09:51:21;;;;;;;23.23;11.52;;;;;16.10;96662.00;;;;10186828;23;20198;-78
2022/11/01 09:55:54;;;;;;;21.17;10.48;;;;;16.30;96662.00;;;;10153986;23;20189;-77
2022/11/01 10:05:16;;;;;;;15.13;8.90;;;;;17.00;96683.00;;;;10185586;23;20244;-77
2022/11/01 10:09:44;;;;;;;17.10;11.00;;;;;17.00;96681.00;;;;10185261;23;20601;-76
2022/11/01 10:13:55;;;;;;;16.27;11.02;;;;;17.10;96690.00;;;;10187162;23;20190;-70
2022/11/01 10:18:03;;;;;;;17.65;10.23;;;;;17.20;96691.00;;;;10185231;23;20198;-74
2022/11/01 10:22:17;;;;;;;16.08;9.48;;;;;17.30;96700.00;;;;10186590;23;20220;-74
2022/11/01 10:26:44;;;;;;;15.30;9.90;;;;;17.60;96696.00;;;;10186060;23;20299;-74
2022/11/01 10:31:22;;;;;;;15.82;10.10;;;;;17.60;96695.00;;;;10185010;23;20240;-74
2022/11/01 10:35:55;;;;;;;17.50;9.82;;;;;17.70;96697.00;;;;10186463;23;20245;-74
2022/11/01 10:40:03;;;;;;;12.93;9.20;;;;;17.70;96697.00;;;;10167993;23;20194;-73
2022/11/01 10:44:33;;;;;;;16.75;10.55;;;;;17.60;96696.00;;;;10184911;23;20281;-73
2022/11/01 10:48:42;;;;;;;16.55;11.27;;;;;17.70;96687.00;;;;10181167;23;20513;-72
2022/11/01 10:52:49;;;;;;;13.85;10.02;;;;;17.80;96690.00;;;;10184938;23;20222;-73
2022/11/01 10:57:22;;;;;;;17.58;10.82;;;;;17.90;96692.00;;;;10185431;23;20216;-74
2022/11/01 11:01:31;;;;;;;16.60;10.95;;;;;18.10;96681.00;;;;10185237;23;20260;-73
2022/11/01 11:06:04;;;;;;;13.65;9.15;;;;;18.40;96673.00;;;;10184507;23;20601;-71
2022/11/01 11:10:17;;;;;;;16.38;9.27;;;;;18.60;96677.00;;;;10183469;23;20193;-74
2022/11/01 11:14:47;;;;;;;16.15;10.68;;;;;18.80;96681.00;;;;10186437;23;20194;-75
2022/11/01 11:19:02;;;;;;;16.83;11.68;;;;;19.10;96684.00;;;;10185187;23;20190;-74
2022/11/01 11:23:28;;;;;;;17.45;10.88;;;;;19.20;96667.00;;;;10185109;23;20253;-74
2022/11/01 11:28:02;;;;;;;16.73;11.35;;;;;19.30;96670.00;;;;10176709;23;20300;-74
2022/11/01 11:32:14;;;;;;;17.08;11.02;;;;;19.40;96666.00;;;;10185319;23;20251;-75
2022/11/01 11:36:44;;;;;;;14.68;9.95;;;;;19.40;96659.00;;;;10184287;23;20190;-75
2022/11/01 11:41:35;;;;;;;18.67;11.02;;;;;19.40;96651.00;;;;10179562;23;20194;-74
2022/11/01 11:45:38;;;;;;;22.42;12.52;;;;;19.30;96661.00;;;;10127436;23;20201;-74
2022/11/01 11:50:12;;;;;;;22.67;13.75;;;;;19.20;96663.00;;;;10166087;23;20193;-74
2022/11/01 11:54:50;;;;;;;19.08;13.18;;;;;19.20;96665.00;;;;10182918;23;20248;-75
2022/11/01 11:59:27;;;;;;;20.95;13.85;;;;;19.10;96668.00;;;;10184110;23;20202;-74
2022/11/01 12:03:45;;;;;;;29.23;14.30;;;;;19.00;96654.00;;;;10181174;23;20543;-73
2022/11/01 12:08:23;;;;;;;24.45;14.77;;;;;18.90;96653.00;;;;10184719;23;20613;-74
2022/11/01 12:12:30;;;;;;;23.02;14.35;;;;;18.90;96656.00;;;;10184769;23;20194;-76
2022/11/01 12:17:19;;;;;;;24.08;15.85;;;;;18.90;96660.00;;;;10183139;23;20205;-74
2022/11/01 12:21:27;;;;;;;29.10;16.00;;;;;19.00;96667.00;;;;10182836;23;20209;-76
2022/11/01 12:25:30;;;;;;;28.83;17.52;;;;;19.00;96663.00;;;;10179646;23;20202;-75
2022/11/01 12:30:15;;;;;;;33.75;18.30;;;;;18.90;96662.00;;;;10179226;23;20202;-76
2022/11/01 12:34:23;;;;;;;29.92;17.60;;;;;18.90;96659.00;;;;10180831;23;20257;-76
2022/11/01 12:38:53;;;;;;;31.75;17.02;;;;;19.00;96664.00;;;;10183963;23;20703;-76
2022/11/01 12:43:12;;;;;;;31.70;17.70;;;;;18.90;96664.00;;;;10184048;23;20506;-71
2022/11/01 12:47:40;;;;;;;30.83;17.52;;;;;18.90;96667.00;;;;10173944;23;20197;-74
2022/11/01 12:52:17;;;;;;;29.25;17.52;;;;;19.10;96669.00;;;;10111624;23;20238;-74
2022/11/01 12:56:48;;;;;;;28.77;18.05;;;;;19.30;96668.00;;;;10134769;23;20198;-74
2022/11/01 13:01:13;;;;;;;30.80;18.02;;;;;19.50;96670.00;;;;10183554;23;20591;-74
2022/11/01 13:05:34;;;;;;;31.38;18.02;;;;;19.60;96670.00;;;;10132537;23;20281;-74
2022/11/01 13:10:07;;;;;;;31.25;18.70;;;;;19.40;96666.00;;;;10121750;23;20197;-73
2022/11/01 13:14:50;;;;;;;33.95;19.10;;;;;19.40;96664.00;;;;10178435;23;20194;-72
2022/11/01 13:19:00;;;;;;;30.95;18.30;;;;;19.30;96664.00;;;;10172829;23;20222;-72
2022/11/01 13:23:35;;;;;;;30.90;18.42;;;;;19.10;96657.00;;;;10178200;23;20236;-72
2022/11/01 13:27:44;;;;;;;27.85;16.15;;;;;19.10;96659.00;;;;10175548;23;20198;-72
2022/11/01 13:32:15;;;;;;;26.33;16.85;;;;;19.10;96676.00;;;;10181495;23;20198;-72
2022/11/01 13:36:26;;;;;;;28.52;17.30;;;;;19.10;96683.00;;;;10179353;23;20194;-72
2022/11/01 13:40:53;;;;;;;27.92;16.85;;;;;19.20;96685.00;;;;10182911;23;20625;-72
2022/11/01 13:45:13;;;;;;;33.25;18.20;;;;;19.20;96681.00;;;;10135637;23;20534;-72
2022/11/01 13:49:54;;;;;;;30.40;16.88;;;;;19.20;96676.00;;;;10180124;23;20194;-73
2022/11/01 13:54:08;;;;;;;30.70;18.27;;;;;19.00;96682.00;;;;10183321;23;20240;-72
2022/11/01 13:58:37;;;;;;;29.80;18.40;;;;;18.90;96679.00;;;;10183826;23;20558;-72
2022/11/01 14:02:55;;;;;;;34.80;19.52;;;;;18.90;96685.00;;;;10184951;23;20226;-72
2022/11/01 14:07:16;;;;;;;33.92;20.13;;;;;18.90;96691.00;;;;10183875;23;20237;-73
2022/11/01 14:11:51;;;;;;;39.22;20.65;;;;;18.80;96686.00;;;;10185713;23;20305;-72
2022/11/01 14:16:30;;;;;;;36.63;20.30;;;;;18.60;96690.00;;;;10185709;23;20198;-72
2022/11/01 14:20:49;;;;;;;36.45;19.92;;;;;18.30;96687.00;;;;10186190;23;20265;-73
2022/11/01 14:25:29;;;;;;;38.95;20.60;;;;;18.10;96690.00;;;;10185338;23;20620;-72
2022/11/01 14:29:35;;;;;;;41.72;21.90;;;;;17.80;96684.00;;;;10184161;23;20204;-73
2022/11/01 14:33:40;;;;;;;42.70;21.90;;;;;17.60;96689.00;;;;10184476;23;20562;-71
2022/11/01 14:38:17;;;;;;;42.50;22.02;;;;;17.40;96689.00;;;;10185492;23;20233;-71
2022/11/01 14:42:25;;;;;;;46.03;22.05;;;;;17.20;96686.00;;;;10185873;23;20197;-73
2022/11/01 14:46:30;;;;;;;41.97;21.75;;;;;17.00;96693.00;;;;10186092;23;20201;-73
2022/11/01 14:50:45;;;;;;;46.20;22.05;;;;;16.80;96696.00;;;;10183374;23;20446;-73
2022/11/01 14:55:14;;;;;;;45.75;21.63;;;;;16.60;96700.00;;;;10184187;23;20249;-72
2022/11/01 14:59:21;;;;;;;48.47;22.17;;;;;16.40;96701.00;;;;10184660;23;20198;-72
2022/11/01 15:08:58;;;;;;;47.00;22.77;;;;;16.00;96712.00;;;;10182864;23;20248;-72
2022/11/01 15:13:37;;;;;;;45.88;22.98;;;;;15.90;96722.00;;;;10184157;23;20205;-72
2022/11/01 15:18:14;;;;;;;49.33;23.55;;;;;15.80;96718.00;;;;10182302;23;20293;-73
2022/11/01 15:22:45;;;;;;;46.20;23.65;;;;;15.70;96722.00;;;;10184335;23;20201;-72
2022/11/01 15:27:23;;;;;;;48.75;23.13;;;;;15.60;96719.00;;;;10185916;23;20683;-73
2022/11/01 15:31:58;;;;;;;42.38;21.45;;;;;15.50;96727.00;;;;10184560;23;20201;-73
2022/11/01 15:36:32;;;;;;;53.60;23.63;;;;;15.40;96727.00;;;;10183236;23;20641;-73
2022/11/01 15:41:12;;;;;;;51.35;25.40;;;;;15.40;96717.00;;;;10182260;23;20269;-73
2022/11/01 15:45:21;;;;;;;101.72;54.05;;;;;15.40;96728.00;;;;10183175;23;20628;-72
2022/11/01 15:49:34;;;;;;;57.53;32.80;;;;;15.40;96726.00;;;;10184490;23;20198;-74
2022/11/01 15:54:04;;;;;;;53.33;27.58;;;;;15.40;96740.00;;;;10185596;23;20613;-73
2022/11/01 15:58:13;;;;;;;154.23;87.95;;;;;15.50;96736.00;;;;10176963;23;20597;-74
2022/11/01 16:02:46;;;;;;;55.28;25.30;;;;;15.50;96749.00;;;;10184668;23;20477;-73
2022/11/01 16:11:55;;;;;;;58.72;33.13;;;;;15.50;96752.00;;;;10184870;23;20201;-74
2022/11/01 16:16:01;;;;;;;51.70;25.45;;;;;15.40;96757.00;;;;10182475;23;20253;-73
2022/11/01 16:20:29;;;;;;;198.45;99.18;;;;;15.20;96755.00;;;;10182814;23;20636;-73
2022/11/01 16:25:05;;;;;;;383.83;200.80;;;;;15.00;96766.00;;;;10185421;23;20201;-73
2022/11/01 16:29:40;;;;;;;702.30;371.15;;;;;14.80;96760.00;;;;10183439;23;20509;-73
2022/11/01 16:34:22;;;;;;;86.85;40.53;;;;;14.60;96755.00;;;;10183702;23;20630;-73
2022/11/01 16:39:00;;;;;;;63.83;30.60;;;;;14.40;96767.00;;;;10184239;23;20197;-73
2022/11/01 16:43:34;;;;;;;63.70;28.58;;;;;14.30;96766.00;;;;10183475;23;20590;-72
2022/11/01 16:48:20;;;;;;;63.35;28.15;;;;;14.20;96772.00;;;;10184205;23;20565;-73
2022/11/01 16:52:48;;;;;;;62.85;27.40;;;;;14.10;96776.00;;;;10184569;23;20657;-74
2022/11/01 16:57:27;;;;;;;100.00;37.45;;;;;14.00;96780.00;;;;10183071;23;20194;-73
2022/11/01 17:02:02;;;;;;;141.48;53.28;;;;;14.00;96792.00;;;;10184117;23;20524;-74
2022/11/01 17:06:06;;;;;;;141.60;44.83;;;;;14.00;96794.00;;;;10184557;23;20711;-74
2022/11/01 17:10:41;;;;;;;138.20;48.97;;;;;14.10;96797.00;;;;10183608;23;20198;-73
2022/11/01 17:15:19;;;;;;;150.57;37.65;;;;;14.10;96805.00;;;;10183533;23;20202;-75
2022/11/01 17:19:53;;;;;;;88.03;32.47;;;;;14.20;96802.00;;;;10184857;23;20194;-75
2022/11/01 17:24:28;;;;;;;119.63;40.58;;;;;14.20;96818.00;;;;10185975;23;20201;-75
2022/11/01 17:29:05;;;;;;;148.52;36.03;;;;;14.30;96817.00;;;;10172133;23;20543;-77
2022/11/01 17:33:42;;;;;;;171.35;37.25;;;;;14.30;96811.00;;;;10187148;23;20200;-77
2022/11/01 17:38:24;;;;;;;169.05;37.72;;;;;14.40;96812.00;;;;10187114;23;20201;-77
2022/11/01 17:42:54;;;;;;;223.60;35.42;;;;;14.40;96811.00;;;;10178486;23;20190;-78
2022/11/01 17:47:30;;;;;;;121.32;32.33;;;;;14.40;96817.00;;;;10185750;23;20658;-77
2022/11/01 17:52:07;;;;;;;176.80;34.83;;;;;14.40;96819.00;;;;10185786;23;20190;-77
2022/11/01 17:56:46;;;;;;;92.47;31.42;;;;;14.40;96824.00;;;;10188310;23;20217;-77
2022/11/01 18:01:21;;;;;;;94.60;31.45;;;;;14.50;96829.00;;;;10185462;23;20473;-78
2022/11/01 18:05:58;;;;;;;186.75;31.60;;;;;14.50;96824.00;;;;10183696;23;20205;-77
2022/11/01 18:10:37;;;;;;;143.60;34.00;;;;;14.50;96827.00;;;;10186463;23;20198;-77
2022/11/01 18:14:54;;;;;;;488.20;44.65;;;;;14.50;96826.00;;;;10185253;23;20213;-76
2022/11/01 18:19:18;;;;;;;143.55;31.55;;;;;14.40;96823.00;;;;10185525;23;20197;-77
2022/11/01 18:23:34;;;;;;;128.73;30.83;;;;;14.40;96826.00;;;;10181355;23;20202;-75
2022/11/01 18:27:37;;;;;;;119.00;30.70;;;;;14.40;96828.00;;;;10186808;23;20248;-76
2022/11/01 18:32:16;;;;;;;78.30;29.75;;;;;14.30;96828.00;;;;10185254;23;20209;-76
2022/11/01 18:36:51;;;;;;;122.95;31.50;;;;;14.30;96830.00;;;;10185635;23;20245;-76
2022/11/01 18:41:21;;;;;;;147.27;30.75;;;;;14.30;96832.00;;;;10184641;23;20194;-76
2022/11/01 18:45:59;;;;;;;193.23;32.67;;;;;14.30;96832.00;;;;10185474;23;20189;-77
2022/11/01 18:50:37;;;;;;;181.68;31.40;;;;;14.40;96828.00;;;;10184863;23;20377;-76
2022/11/01 18:55:11;;;;;;;152.20;32.88;;;;;14.40;96833.00;;;;10184835;23;20202;-78
2022/11/01 18:59:20;;;;;;;327.50;36.72;;;;;14.40;96836.00;;;;10185563;23;20273;-78
2022/11/01 19:03:57;;;;;;;143.38;31.55;;;;;14.30;96836.00;;;;10185074;23;20505;-75
2022/11/01 19:08:03;;;;;;;157.57;33.53;;;;;14.30;96837.00;;;;10185638;23;20209;-76
2022/11/01 19:12:38;;;;;;;199.15;35.67;;;;;14.30;96841.00;;;;10185816;23;20312;-77
2022/11/01 19:16:42;;;;;;;163.07;32.90;;;;;14.30;96839.00;;;;10184756;23;20209;-78
2022/11/01 19:21:17;;;;;;;405.50;41.83;;;;;14.30;96839.00;;;;10186642;23;20637;-76
2022/11/01 19:25:54;;;;;;;291.38;35.70;;;;;14.30;96849.00;;;;10185284;23;20194;-74
2022/11/01 19:30:33;;;;;;;136.63;31.27;;;;;14.20;96838.00;;;;10182698;23;20702;-75
2022/11/01 19:34:40;;;;;;;145.93;31.33;;;;;14.20;96837.00;;;;10183124;23;20194;-77
2022/11/01 19:38:45;;;;;;;164.18;32.83;;;;;14.10;96836.00;;;;10184710;23;20242;-77
2022/11/01 19:43:20;;;;;;;168.93;30.85;;;;;14.10;96842.00;;;;10168759;23;20221;-76
2022/11/01 19:47:59;;;;;;;245.50;29.33;;;;;14.10;96841.00;;;;10183604;23;20198;-76
2022/11/01 19:52:24;;;;;;;518.88;43.50;;;;;14.00;96844.00;;;;10184524;23;20213;-76
2022/11/01 19:56:39;;;;;;;253.45;35.65;;;;;14.10;96831.00;;;;10183540;23;20246;-78
2022/11/01 20:01:19;;;;;;;426.33;35.85;;;;;14.10;96834.00;;;;10185302;23;20197;-76
2022/11/01 20:05:58;;;;;;;542.25;42.05;;;;;14.10;96827.00;;;;10185076;23;20228;-76
2022/11/01 20:10:35;;;;;;;420.08;36.17;;;;;14.00;96832.00;;;;10184331;23;20249;-76
2022/11/01 20:14:39;;;;;;;367.17;32.28;;;;;14.00;96835.00;;;;10184501;23;20216;-76
2022/11/01 20:19:16;;;;;;;472.20;39.45;;;;;13.90;96847.00;;;;10186027;23;20237;-77
2022/11/01 20:23:53;;;;;;;464.23;37.20;;;;;13.90;96841.00;;;;10184430;23;20198;-78
2022/11/01 20:28:28;;;;;;;374.13;31.77;;;;;13.80;96856.00;;;;10184305;23;20289;-74
2022/11/01 20:33:05;;;;;;;250.52;27.23;;;;;13.70;96849.00;;;;10183315;23;20243;-74
2022/11/01 20:37:09;;;;;;;429.27;31.90;;;;;13.70;96855.00;;;;10184972;23;20200;-72
2022/11/01 20:41:45;;;;;;;488.20;39.35;;;;;13.60;96859.00;;;;10182399;23;20244;-77
2022/11/01 20:46:21;;;;;;;464.58;38.13;;;;;13.60;96859.00;;;;10184824;23;20263;-75
2022/11/01 20:50:55;;;;;;;544.72;40.42;;;;;13.60;96860.00;;;;10181328;23;20209;-73
2022/11/01 20:55:32;;;;;;;316.63;30.40;;;;;13.50;96857.00;;;;10186760;23;20639;-73
2022/11/01 20:59:37;;;;;;;550.65;36.50;;;;;13.50;96856.00;;;;10187333;23;20198;-74
2022/11/01 21:03:40;;;;;;;365.08;29.58;;;;;13.50;96860.00;;;;10188416;23;20631;-73
2022/11/01 21:12:46;;;;;;;372.33;34.33;;;;;13.50;96850.00;;;;10184894;23;20523;-73
2022/11/01 21:17:18;;;;;;;496.35;37.22;;;;;13.40;96862.00;;;;10187483;23;20297;-74
2022/11/01 21:21:29;;;;;;;444.52;34.25;;;;;13.40;96865.00;;;;10186154;23;20466;-74
2022/11/01 21:25:34;;;;;;;186.60;21.48;;;;;13.30;96866.00;;;;10186990;23;20266;-73
2022/11/01 21:29:41;;;;;;;242.32;24.23;;;;;13.30;96875.00;;;;10186161;23;20202;-73
2022/11/01 21:33:54;;;;;;;303.25;26.60;;;;;13.20;96871.00;;;;10186413;23;20202;-73
2022/11/01 21:37:57;;;;;;;489.33;34.83;;;;;13.20;96874.00;;;;10187004;23;20200;-73